createdAt,value
2017-12-09T00:03:44.815Z,66.80
2017-12-09T00:08:47.042Z,67.10
2017-12-09T00:13:48.717Z,66.90
2017-12-09T00:18:50.285Z,67.10
2017-12-09T00:23:51.784Z,66.60
2017-12-09T00:28:53.295Z,67.00
2017-12-09T00:33:54.818Z,68.00
2017-12-09T00:38:57.067Z,67.20
2017-12-09T00:43:58.570Z,67.10
2017-12-09T00:49:00.813Z,68.30
2017-12-09T00:54:02.324Z,67.50
2017-12-09T00:59:03.799Z,67.40
2017-12-09T01:04:05.315Z,67.10
2017-12-09T01:09:06.832Z,66.40
2017-12-09T01:14:09.085Z,65.70
2017-12-09T01:19:10.585Z,65.70
2017-12-09T01:24:12.828Z,64.30
2017-12-09T01:29:14.385Z,64.20
2017-12-09T01:34:15.948Z,63.10
2017-12-09T01:39:17.468Z,62.80
2017-12-09T01:44:19.709Z,63.10
2017-12-09T01:49:21.223Z,63.10
2017-12-09T01:54:23.467Z,62.40
2017-12-09T01:59:24.960Z,62.30
2017-12-09T02:04:26.554Z,62.30
2017-12-09T02:09:28.078Z,61.60
2017-12-09T02:14:29.608Z,62.00
2017-12-09T02:19:31.097Z,62.30
2017-12-09T02:24:32.646Z,61.90
2017-12-09T02:29:34.092Z,62.00
2017-12-09T02:34:35.596Z,62.40
2017-12-09T02:39:37.100Z,62.00
2017-12-09T02:44:39.394Z,62.90
2017-12-09T02:49:41.670Z,63.60
2017-12-09T02:54:43.910Z,63.90
2017-12-09T02:59:45.429Z,63.90
2017-12-09T03:04:47.692Z,62.90
2017-12-09T03:09:49.167Z,62.90
2017-12-09T03:14:50.666Z,63.20
2017-12-09T03:19:52.183Z,63.90
2017-12-09T03:24:53.665Z,64.20
2017-12-09T03:29:55.159Z,64.30
2017-12-09T03:34:57.517Z,64.50
2017-12-09T03:39:58.993Z,64.50
2017-12-09T03:45:01.273Z,65.90
2017-12-09T03:50:02.747Z,65.40
2017-12-09T03:55:04.958Z,65.90
2017-12-09T04:00:06.461Z,65.90
2017-12-09T04:05:08.037Z,66.00
2017-12-09T04:10:09.532Z,66.50
2017-12-09T04:15:12.188Z,66.00
2017-12-09T04:20:13.712Z,65.90
2017-12-09T04:25:15.229Z,66.20
2017-12-09T04:30:16.805Z,66.40
2017-12-09T04:35:18.289Z,66.20
2017-12-09T04:40:19.781Z,66.90
2017-12-09T04:45:28.413Z,67.50
2017-12-09T04:50:29.905Z,68.20
2017-12-09T04:55:31.397Z,68.60
2017-12-09T05:00:32.928Z,68.90
2017-12-09T05:05:34.410Z,69.50
2017-12-09T05:10:35.932Z,70.00
2017-12-09T05:15:38.320Z,71.00
2017-12-09T05:20:40.605Z,70.30
2017-12-09T05:25:42.884Z,70.30
2017-12-09T05:30:45.513Z,70.10
2017-12-09T05:35:47.051Z,70.00
2017-12-09T05:40:49.324Z,70.90
2017-12-09T05:45:50.777Z,70.70
2017-12-09T05:50:52.273Z,70.80
2017-12-09T05:55:54.492Z,70.30
2017-12-09T06:00:56.021Z,70.30
2017-12-09T06:05:58.288Z,70.40
2017-12-09T06:10:59.780Z,70.40
2017-12-09T06:16:01.274Z,70.40
2017-12-09T06:21:02.775Z,70.50
2017-12-09T06:26:04.260Z,71.50
2017-12-09T06:31:06.554Z,70.60
2017-12-09T06:36:08.774Z,70.80
2017-12-09T06:41:10.269Z,70.60
2017-12-09T06:46:11.813Z,71.30
2017-12-09T06:51:13.321Z,70.90
2017-12-09T06:56:14.829Z,70.40
2017-12-09T07:01:16.320Z,70.60
2017-12-09T07:06:18.130Z,69.30
2017-12-09T07:11:19.621Z,69.60
2017-12-09T07:16:21.872Z,69.70
2017-12-09T07:21:23.389Z,69.60
2017-12-09T07:26:24.902Z,69.90
2017-12-09T07:31:26.444Z,69.70
2017-12-09T07:36:27.958Z,69.40
2017-12-09T07:41:30.200Z,68.60
2017-12-09T07:46:31.756Z,68.50
2017-12-09T07:51:40.180Z,68.60
2017-12-09T07:56:41.665Z,68.00
2017-12-09T08:01:43.159Z,66.50
2017-12-09T08:06:44.745Z,66.70
2017-12-09T08:11:46.977Z,66.70
2017-12-09T08:16:48.472Z,66.70
2017-12-09T08:21:49.967Z,66.50
2017-12-09T08:26:52.281Z,65.10
2017-12-09T08:31:53.853Z,65.10
2017-12-09T08:36:55.363Z,63.70
2017-12-09T08:41:56.919Z,62.50
2017-12-09T08:46:58.398Z,62.00
2017-12-09T08:51:59.909Z,62.20
2017-12-09T08:57:01.436Z,61.60
2017-12-09T09:02:02.980Z,62.40
2017-12-09T09:07:04.540Z,61.60
2017-12-09T09:12:06.190Z,61.30
2017-12-09T09:17:07.741Z,61.20
2017-12-09T09:22:09.228Z,60.90
2017-12-09T09:27:10.759Z,60.40
2017-12-09T09:32:13.025Z,59.10
2017-12-09T09:37:14.552Z,59.10
2017-12-09T09:42:16.079Z,59.10
2017-12-09T09:47:18.357Z,59.50
2017-12-09T09:52:19.906Z,59.40
2017-12-09T09:57:21.416Z,58.30
2017-12-09T10:02:22.945Z,58.90
2017-12-09T10:07:24.481Z,58.20
2017-12-09T10:12:26.007Z,59.10
2017-12-09T10:17:28.289Z,58.90
2017-12-09T10:22:30.776Z,56.80
2017-12-09T10:27:32.992Z,56.50
2017-12-09T10:32:34.521Z,56.50
2017-12-09T10:37:36.914Z,57.20
2017-12-09T10:42:39.164Z,55.60
2017-12-09T10:47:40.698Z,55.60
2017-12-09T10:52:42.263Z,55.50
2017-12-09T10:57:43.736Z,56.00
2017-12-09T11:02:45.253Z,55.20
2017-12-09T11:07:46.758Z,55.70
2017-12-09T11:12:48.277Z,55.20
2017-12-09T11:17:49.805Z,55.20
2017-12-09T11:22:51.361Z,55.30
2017-12-09T11:27:53.014Z,55.10
2017-12-09T11:32:55.264Z,55.60
2017-12-09T11:37:56.809Z,55.60
2017-12-09T11:42:58.448Z,55.10
2017-12-09T11:48:00.060Z,55.60
2017-12-09T11:53:01.658Z,54.90
2017-12-09T11:58:03.944Z,55.00
2017-12-09T12:03:05.535Z,55.00
2017-12-09T12:08:07.129Z,55.40
2017-12-09T12:13:08.670Z,56.00
2017-12-09T12:18:10.855Z,56.40
2017-12-09T12:23:12.329Z,56.40
2017-12-09T12:28:13.786Z,56.30
2017-12-09T12:33:15.258Z,56.50
2017-12-09T12:38:16.747Z,56.20
2017-12-09T12:43:18.184Z,57.10
2017-12-09T12:48:19.659Z,56.40
2017-12-09T12:53:21.124Z,58.60
2017-12-09T12:58:22.600Z,61.30
2017-12-09T13:03:24.308Z,62.50
2017-12-09T13:08:25.785Z,64.70
2017-12-09T13:13:27.209Z,65.70
2017-12-09T13:18:28.684Z,65.90
2017-12-09T13:23:30.118Z,66.30
2017-12-09T13:28:31.770Z,67.80
2017-12-09T13:33:33.895Z,66.70
2017-12-09T13:38:35.374Z,66.60
2017-12-09T13:43:36.819Z,66.50
2017-12-09T13:48:38.370Z,65.70
2017-12-09T13:53:39.818Z,64.70
2017-12-09T13:58:41.994Z,63.80
2017-12-09T14:03:43.596Z,63.60
2017-12-09T14:08:45.185Z,63.00
2017-12-09T14:13:46.722Z,62.90
2017-12-09T14:18:48.275Z,62.70
2017-12-09T14:23:51.166Z,61.00
2017-12-09T14:28:53.495Z,59.70
2017-12-09T14:34:02.104Z,59.60
2017-12-09T14:39:04.516Z,59.90
2017-12-09T14:44:06.035Z,59.90
2017-12-09T14:49:07.501Z,60.10
2017-12-09T14:54:09.204Z,59.80
2017-12-09T14:59:10.770Z,60.70
2017-12-09T15:04:12.225Z,60.40
2017-12-09T15:09:14.512Z,60.60
2017-12-09T15:14:16.119Z,60.60
2017-12-09T15:19:17.687Z,60.90
2017-12-09T15:24:19.269Z,60.80
2017-12-09T15:29:20.873Z,60.50
2017-12-09T15:34:22.380Z,60.10
2017-12-09T15:39:25.036Z,59.80
2017-12-09T15:44:27.123Z,59.80
2017-12-09T15:49:28.783Z,60.10
2017-12-09T15:54:30.317Z,60.10
2017-12-09T15:59:32.132Z,59.60
2017-12-09T16:04:34.394Z,59.20
2017-12-09T16:09:36.136Z,59.10
2017-12-09T16:14:37.686Z,59.30
2017-12-09T16:19:39.233Z,59.10
2017-12-09T16:24:41.510Z,58.90
2017-12-09T16:29:43.765Z,60.20
2017-12-09T16:34:45.365Z,59.40
2017-12-09T16:39:47.718Z,59.50
2017-12-09T16:44:49.252Z,59.50
2017-12-09T16:49:50.864Z,60.80
2017-12-09T16:54:52.316Z,60.10
2017-12-09T16:59:53.919Z,59.40
2017-12-09T17:04:56.234Z,58.70
2017-12-09T17:09:57.773Z,58.70
2017-12-09T17:15:00.037Z,58.90
2017-12-09T17:20:01.559Z,58.90
2017-12-09T17:25:03.325Z,59.00
2017-12-09T17:30:04.830Z,59.20
2017-12-09T17:35:06.378Z,59.70
2017-12-09T17:40:08.121Z,59.90
2017-12-09T17:45:09.697Z,60.40
2017-12-09T17:50:11.272Z,60.70
2017-12-09T17:55:12.753Z,61.00
2017-12-09T18:00:22.992Z,60.80
2017-12-09T18:05:25.289Z,60.70
2017-12-09T18:10:26.841Z,60.70
2017-12-09T18:15:28.431Z,60.90
2017-12-09T18:20:29.976Z,61.00
2017-12-09T18:25:32.239Z,61.40
2017-12-09T18:30:33.813Z,61.30
2017-12-09T18:35:35.392Z,62.10
2017-12-09T18:40:37.662Z,61.90
2017-12-09T18:45:39.196Z,61.90
2017-12-09T18:50:41.369Z,62.30
2017-12-09T18:55:42.902Z,62.50
2017-12-09T19:00:45.214Z,62.70
2017-12-09T19:05:46.853Z,62.60
2017-12-09T19:10:49.197Z,63.30
2017-12-09T19:15:50.804Z,63.20
2017-12-09T19:20:53.114Z,63.70
2017-12-09T19:25:54.633Z,63.70
2017-12-09T19:30:56.166Z,64.10
2017-12-09T19:35:57.718Z,63.80
2017-12-09T19:40:59.412Z,63.90
2017-12-09T19:46:00.915Z,63.90
2017-12-09T19:51:02.454Z,63.90
2017-12-09T19:56:03.942Z,63.80
2017-12-09T20:01:05.467Z,63.90
2017-12-09T20:06:06.986Z,63.80
2017-12-09T20:11:08.494Z,64.20
2017-12-09T20:16:10.056Z,64.40
2017-12-09T20:21:11.575Z,64.90
2017-12-09T20:26:13.157Z,64.70
2017-12-09T20:31:14.690Z,65.10
2017-12-09T20:36:16.340Z,65.10
2017-12-09T20:41:17.901Z,65.30
2017-12-09T20:46:19.582Z,66.00
2017-12-09T20:51:21.139Z,66.10
2017-12-09T20:56:22.687Z,65.80
2017-12-09T21:01:24.962Z,66.00
2017-12-09T21:06:26.499Z,65.90
2017-12-09T21:11:28.035Z,66.40
2017-12-09T21:16:29.617Z,66.20
2017-12-09T21:21:31.204Z,66.80
2017-12-09T21:26:32.770Z,66.90
2017-12-09T21:31:34.334Z,68.00
2017-12-09T21:36:35.901Z,67.30
2017-12-09T21:41:37.487Z,67.20
2017-12-09T21:46:39.086Z,67.60
2017-12-09T21:51:41.424Z,68.10
2017-12-09T21:56:43.029Z,68.10
2017-12-09T22:01:45.371Z,68.70
2017-12-09T22:06:46.947Z,68.70
2017-12-09T22:11:48.525Z,69.00
2017-12-09T22:16:50.049Z,68.90
2017-12-09T22:21:51.586Z,69.10
2017-12-09T22:26:53.108Z,69.00
2017-12-09T22:31:54.710Z,69.20
2017-12-09T22:36:56.292Z,68.90
2017-12-09T22:41:57.844Z,69.70
2017-12-09T22:46:59.383Z,69.60
2017-12-09T22:52:00.901Z,68.30
2017-12-09T22:57:03.182Z,68.30
2017-12-09T23:02:04.713Z,68.30
2017-12-09T23:07:06.233Z,67.90
2017-12-09T23:12:08.516Z,67.10
2017-12-09T23:17:10.045Z,67.10
2017-12-09T23:22:11.560Z,66.40
2017-12-09T23:27:13.065Z,66.40
2017-12-09T23:32:14.584Z,66.00
2017-12-09T23:37:16.845Z,65.70
2017-12-09T23:42:18.366Z,65.70
2017-12-09T23:47:19.878Z,65.60
2017-12-09T23:52:21.429Z,65.10
2017-12-09T23:57:22.948Z,65.40
